createdAt,value
2022-08-09T00:01:57.580Z,61.38
2022-08-09T00:04:34.760Z,61.36
2022-08-09T00:07:10.574Z,61.45
2022-08-09T00:09:40.626Z,61.32
2022-08-09T00:12:15.455Z,61.30
2022-08-09T00:14:56.698Z,61.20
2022-08-09T00:18:05.381Z,61.47
2022-08-09T00:20:18.260Z,61.64
2022-08-09T00:22:48.228Z,61.88
2022-08-09T00:25:23.126Z,62.16
2022-08-09T00:28:04.176Z,62.33
2022-08-09T00:30:34.045Z,62.94
2022-08-09T00:33:03.995Z,63.20
2022-08-09T00:35:43.479Z,63.66
2022-08-09T00:38:14.035Z,63.40
2022-08-09T00:40:52.446Z,62.89
2022-08-09T00:44:15.498Z,62.67
2022-08-09T00:46:28.366Z,62.98
2022-08-09T00:49:04.106Z,63.25
2022-08-09T00:51:42.653Z,63.30
2022-08-09T00:54:31.638Z,63.06
2022-08-09T00:57:08.852Z,62.71
2022-08-09T00:59:47.193Z,62.48
2022-08-09T01:02:24.240Z,62.42
2022-08-09T01:05:03.249Z,62.83
2022-08-09T01:08:01.074Z,62.66
2022-08-09T01:10:35.648Z,62.87
2022-08-09T01:13:16.757Z,62.82
2022-08-09T01:15:51.796Z,62.56
2022-08-09T01:18:31.444Z,62.39
2022-08-09T01:21:17.490Z,62.39
2022-08-09T01:24:02.837Z,62.27
2022-08-09T01:27:09.669Z,62.13
2022-08-09T01:29:55.751Z,61.89
2022-08-09T01:32:34.274Z,61.70
2022-08-09T01:35:28.350Z,61.53
2022-08-09T01:38:10.795Z,61.16
2022-08-09T01:40:52.839Z,61.09
2022-08-09T01:43:50.801Z,60.76
2022-08-09T01:46:24.167Z,61.02
2022-08-09T01:49:00.248Z,60.77
2022-08-09T01:51:44.460Z,60.74
2022-08-09T01:54:25.628Z,61.06
2022-08-09T01:56:59.943Z,61.45
2022-08-09T01:59:41.093Z,61.70
2022-08-09T02:02:31.299Z,61.49
2022-08-09T02:05:05.595Z,61.23
2022-08-09T02:08:38.629Z,61.32
2022-08-09T02:10:38.756Z,60.99
2022-08-09T02:13:12.958Z,60.69
2022-08-09T02:15:50.471Z,60.82
2022-08-09T02:18:23.863Z,60.32
2022-08-09T02:20:57.144Z,60.49
2022-08-09T02:23:39.803Z,60.75
2022-08-09T02:26:24.822Z,60.49
2022-08-09T02:29:00.653Z,60.54
2022-08-09T02:31:36.137Z,60.52
2022-08-09T02:34:25.779Z,60.78
2022-08-09T02:37:07.433Z,60.73
2022-08-09T02:39:49.608Z,60.67
2022-08-09T02:42:24.795Z,60.97
2022-08-09T02:45:00.403Z,61.06
2022-08-09T02:47:46.314Z,61.08
2022-08-09T02:50:30.969Z,61.16
2022-08-09T02:53:05.945Z,61.35
2022-08-09T02:55:53.775Z,61.12
2022-08-09T02:58:38.054Z,61.27
2022-08-09T03:01:11.240Z,60.68
2022-08-09T03:04:16.652Z,60.41
2022-08-09T03:06:40.379Z,59.29
2022-08-09T03:09:11.414Z,58.83
2022-08-09T03:12:09.660Z,58.75
2022-08-09T03:14:34.413Z,58.49
2022-08-09T03:17:07.113Z,58.85
2022-08-09T03:19:57.888Z,58.29
2022-08-09T03:22:41.827Z,57.83
2022-08-09T03:28:04.276Z,57.23
2022-08-09T03:30:41.073Z,56.85
2022-08-09T03:33:18.913Z,57.16
2022-08-09T03:36:13.061Z,57.53
2022-08-09T03:38:46.128Z,57.29
2022-08-09T03:41:18.420Z,57.63
2022-08-09T03:44:03.326Z,57.72
2022-08-09T03:46:38.273Z,57.45
2022-08-09T03:49:10.263Z,57.55
2022-08-09T03:51:58.229Z,57.52
2022-08-09T03:54:34.640Z,57.05
2022-08-09T03:57:18.099Z,57.21
2022-08-09T03:59:55.479Z,57.11
2022-08-09T04:02:28.582Z,57.20
2022-08-09T04:05:05.872Z,56.81
2022-08-09T04:07:52.387Z,56.99
2022-08-09T04:10:28.701Z,56.90
2022-08-09T04:13:04.245Z,56.74
2022-08-09T04:16:17.470Z,56.73
2022-08-09T04:18:25.308Z,56.78
2022-08-09T04:20:55.070Z,56.89
2022-08-09T04:23:25.705Z,57.28
2022-08-09T04:25:56.431Z,57.33
2022-08-09T04:28:32.919Z,57.24
2022-08-09T04:31:09.733Z,57.47
2022-08-09T04:33:52.924Z,57.19
2022-08-09T04:36:27.713Z,58.02
2022-08-09T04:39:01.242Z,58.94
2022-08-09T04:41:33.077Z,60.05
2022-08-09T04:44:06.380Z,59.76
2022-08-09T04:46:57.391Z,60.52
2022-08-09T04:49:54.711Z,60.48
2022-08-09T04:52:32.483Z,60.29
2022-08-09T04:55:05.055Z,60.14
2022-08-09T04:57:54.189Z,60.06
2022-08-09T05:00:31.648Z,60.01
2022-08-09T05:03:30.205Z,59.92
2022-08-09T05:06:04.326Z,59.56
2022-08-09T05:08:37.282Z,59.47
2022-08-09T05:11:09.286Z,58.81
2022-08-09T05:13:40.921Z,58.72
2022-08-09T05:16:11.379Z,58.28
2022-08-09T05:18:58.128Z,58.33
2022-08-09T05:21:29.997Z,57.39
2022-08-09T05:24:06.855Z,56.54
2022-08-09T05:26:45.593Z,55.87
2022-08-09T05:29:21.289Z,55.42
2022-08-09T05:31:59.098Z,56.15
2022-08-09T05:34:30.712Z,55.41
2022-08-09T05:37:06.475Z,55.19
2022-08-09T05:39:43.927Z,54.66
2022-08-09T05:42:17.966Z,54.02
2022-08-09T05:44:52.678Z,53.10
2022-08-09T05:47:25.103Z,53.08
2022-08-09T05:50:30.097Z,53.12
2022-08-09T05:52:53.541Z,53.35
2022-08-09T05:55:24.451Z,52.99
2022-08-09T05:57:58.511Z,52.61
2022-08-09T06:00:32.924Z,52.81
2022-08-09T06:03:04.534Z,52.53
2022-08-09T06:05:50.230Z,52.98
2022-08-09T06:08:31.238Z,53.28
2022-08-09T06:11:01.501Z,53.15
2022-08-09T06:13:47.791Z,53.85
2022-08-09T06:16:18.095Z,53.52
2022-08-09T06:18:49.594Z,53.43
2022-08-09T06:24:23.620Z,53.69
2022-08-09T06:26:53.532Z,54.25
2022-08-09T06:29:23.542Z,54.44
2022-08-09T06:32:08.617Z,53.74
2022-08-09T06:34:39.363Z,54.33
2022-08-09T06:37:10.318Z,54.21
2022-08-09T06:39:57.701Z,54.17
2022-08-09T06:42:33.640Z,53.38
2022-08-09T06:45:20.429Z,53.77
2022-08-09T06:48:00.642Z,53.32
2022-08-09T06:50:32.173Z,53.08
2022-08-09T06:53:05.089Z,53.65
2022-08-09T06:55:36.456Z,54.29
2022-08-09T06:58:07.941Z,54.25
2022-08-09T07:00:59.558Z,55.11
2022-08-09T07:03:29.989Z,55.80
2022-08-09T07:06:05.099Z,57.00
2022-08-09T07:08:37.014Z,57.66
2022-08-09T07:11:12.766Z,57.26
2022-08-09T07:14:05.092Z,57.15
2022-08-09T07:16:42.974Z,58.05
2022-08-09T07:19:23.405Z,58.80
2022-08-09T07:21:57.133Z,58.69
2022-08-09T07:24:32.710Z,56.67
2022-08-09T07:27:33.084Z,56.09
2022-08-09T07:30:05.921Z,56.00
2022-08-09T07:32:36.896Z,56.17
2022-08-09T07:35:11.643Z,55.37
2022-08-09T07:37:43.839Z,53.97
2022-08-09T07:40:18.271Z,52.83
2022-08-09T07:42:55.726Z,51.46
2022-08-09T07:45:40.378Z,51.06
2022-08-09T07:48:22.389Z,52.07
2022-08-09T07:51:10.190Z,50.93
2022-08-09T07:54:05.309Z,50.40
2022-08-09T07:56:44.977Z,48.29
2022-08-09T07:59:25.091Z,48.75
2022-08-09T08:02:04.890Z,46.95
2022-08-09T08:04:37.324Z,45.95
2022-08-09T08:07:09.385Z,44.10
2022-08-09T08:10:07.791Z,43.13
2022-08-09T08:12:45.664Z,43.26
2022-08-09T08:15:24.155Z,44.33
2022-08-09T08:17:58.235Z,44.69
2022-08-09T08:20:32.761Z,44.39
2022-08-09T08:23:15.899Z,44.03
2022-08-09T08:25:50.417Z,44.12
2022-08-09T08:28:37.632Z,43.50
2022-08-09T08:31:15.108Z,43.64
2022-08-09T08:33:52.180Z,43.72
2022-08-09T08:36:28.918Z,42.63
2022-08-09T08:39:00.549Z,41.63
2022-08-09T08:41:50.398Z,40.42
2022-08-09T08:44:29.379Z,41.60
2022-08-09T08:47:12.373Z,41.88
2022-08-09T08:49:46.794Z,42.63
2022-08-09T08:52:58.267Z,43.49
2022-08-09T08:55:19.050Z,43.82
2022-08-09T08:57:58.299Z,44.75
2022-08-09T09:00:30.186Z,44.87
2022-08-09T09:03:11.362Z,44.62
2022-08-09T09:05:58.670Z,44.56
2022-08-09T09:08:37.870Z,42.78
2022-08-09T09:11:13.712Z,43.43
2022-08-09T09:13:57.207Z,42.06
2022-08-09T09:16:33.670Z,41.88
2022-08-09T09:22:11.688Z,37.11
2022-08-09T09:24:46.908Z,34.92
2022-08-09T09:28:04.184Z,33.78
2022-08-09T09:30:40.151Z,31.99
2022-08-09T09:33:16.116Z,32.90
2022-08-09T09:36:01.346Z,33.68
2022-08-09T09:38:48.728Z,32.46
2022-08-09T09:41:49.825Z,33.74
2022-08-09T09:44:32.011Z,35.05
2022-08-09T09:47:11.874Z,36.57
2022-08-09T09:50:07.383Z,37.99
2022-08-09T09:52:37.374Z,39.35
2022-08-09T09:55:24.221Z,40.09
2022-08-09T09:58:17.025Z,39.50
2022-08-09T10:00:55.944Z,37.67
2022-08-09T10:03:56.323Z,34.27
2022-08-09T10:06:27.725Z,33.00
2022-08-09T10:09:22.751Z,32.63
2022-08-09T10:12:14.844Z,33.76
2022-08-09T10:14:54.203Z,36.43
2022-08-09T10:17:50.288Z,37.12
2022-08-09T10:20:32.533Z,34.42
2022-08-09T10:23:20.289Z,32.55
2022-08-09T10:26:07.447Z,31.93
2022-08-09T10:28:48.781Z,32.68
2022-08-09T10:34:33.125Z,29.14
2022-08-09T10:37:09.639Z,29.75
2022-08-09T10:39:49.259Z,31.48
2022-08-09T10:42:20.918Z,32.02
2022-08-09T10:45:04.434Z,33.94
2022-08-09T10:48:16.332Z,35.52
2022-08-09T10:51:05.391Z,32.44
2022-08-09T10:53:56.456Z,32.24
2022-08-09T10:56:30.431Z,34.15
2022-08-09T10:59:30.831Z,35.86
2022-08-09T11:03:10.837Z,37.05
2022-08-09T11:05:24.919Z,37.72
2022-08-09T11:08:51.237Z,38.86
2022-08-09T11:11:52.124Z,34.16
2022-08-09T11:14:35.694Z,34.46
2022-08-09T11:18:02.978Z,35.81
2022-08-09T11:20:50.092Z,34.56
2022-08-09T11:23:30.189Z,34.04
2022-08-09T11:26:01.778Z,34.46
2022-08-09T11:28:56.518Z,35.08
2022-08-09T11:31:52.696Z,35.41
2022-08-09T11:34:35.406Z,35.52
2022-08-09T11:37:07.362Z,35.43
2022-08-09T11:40:05.863Z,35.23
2022-08-09T11:42:49.903Z,34.58
2022-08-09T11:45:42.059Z,34.15
2022-08-09T11:48:26.438Z,34.71
2022-08-09T11:51:38.107Z,35.83
2022-08-09T11:54:27.971Z,37.39
2022-08-09T11:58:00.102Z,38.10
2022-08-09T12:00:34.091Z,37.98
2022-08-09T12:03:50.310Z,37.09
2022-08-09T12:05:59.196Z,35.90
2022-08-09T12:08:31.249Z,36.84
2022-08-09T12:11:05.357Z,37.43
2022-08-09T12:14:09.977Z,35.21
2022-08-09T12:16:40.286Z,33.42
2022-08-09T12:19:12.320Z,32.30
2022-08-09T12:21:51.533Z,32.52
2022-08-09T12:24:26.139Z,33.50
2022-08-09T12:29:10.494Z,32.97
2022-08-09T12:30:29.980Z,32.00
2022-08-09T12:33:03.536Z,33.17
2022-08-09T12:35:40.822Z,34.68
2022-08-09T12:38:38.212Z,34.56
2022-08-09T12:41:13.547Z,33.48
2022-08-09T12:44:06.984Z,32.77
2022-08-09T12:46:39.041Z,31.48
2022-08-09T12:49:10.644Z,30.16
2022-08-09T12:51:59.954Z,30.99
2022-08-09T12:55:03.150Z,32.08
2022-08-09T12:57:42.559Z,33.22
2022-08-09T13:00:25.101Z,33.98
2022-08-09T13:02:58.327Z,34.22
2022-08-09T13:05:51.649Z,34.93
2022-08-09T13:08:40.171Z,34.93
2022-08-09T13:11:23.219Z,35.69
2022-08-09T13:14:41.145Z,36.39
2022-08-09T13:16:59.512Z,37.63
2022-08-09T13:20:09.772Z,37.99
2022-08-09T13:22:36.782Z,38.18
2022-08-09T13:25:15.399Z,38.11
2022-08-09T13:27:55.912Z,39.11
2022-08-09T13:30:50.763Z,37.72
2022-08-09T13:33:52.609Z,38.10
2022-08-09T13:36:39.268Z,38.15
2022-08-09T13:39:34.317Z,38.23
2022-08-09T13:42:12.116Z,37.97
2022-08-09T13:44:44.411Z,37.15
2022-08-09T13:47:31.126Z,36.76
2022-08-09T13:50:12.752Z,37.29
2022-08-09T13:52:49.752Z,37.50
2022-08-09T13:55:20.946Z,36.80
2022-08-09T13:57:55.912Z,38.02
2022-08-09T14:00:30.585Z,39.26
2022-08-09T14:03:04.146Z,39.91
2022-08-09T14:05:56.850Z,39.66
2022-08-09T14:08:34.626Z,39.42
2022-08-09T14:11:15.918Z,38.87
2022-08-09T14:14:21.933Z,39.65
2022-08-09T14:16:40.225Z,39.30
2022-08-09T14:19:13.201Z,39.68
2022-08-09T14:21:43.353Z,40.46
2022-08-09T14:24:22.118Z,40.69
2022-08-09T14:27:03.427Z,41.74
2022-08-09T14:30:35.477Z,41.84
2022-08-09T14:32:47.233Z,42.21
2022-08-09T14:35:19.822Z,42.34
2022-08-09T14:38:02.331Z,42.45
2022-08-09T14:41:00.670Z,42.87
2022-08-09T14:43:46.881Z,43.80
2022-08-09T14:46:55.588Z,44.51
2022-08-09T14:49:16.109Z,44.54
2022-08-09T14:51:46.331Z,44.56
2022-08-09T14:54:22.418Z,44.87
2022-08-09T14:56:59.409Z,43.90
2022-08-09T14:59:29.741Z,43.77
2022-08-09T15:02:01.806Z,43.60
2022-08-09T15:04:37.092Z,43.41
2022-08-09T15:07:10.231Z,43.80
2022-08-09T15:10:03.778Z,43.91
2022-08-09T15:12:34.457Z,43.37
2022-08-09T15:15:08.635Z,43.38
2022-08-09T15:17:42.200Z,43.51
2022-08-09T15:21:58.873Z,43.83
2022-08-09T15:24:02.788Z,43.56
2022-08-09T15:26:09.167Z,43.13
2022-08-09T15:28:54.747Z,42.88
2022-08-09T15:31:28.640Z,42.83
2022-08-09T15:34:32.341Z,42.59
2022-08-09T15:37:37.123Z,41.99
2022-08-09T15:40:20.082Z,41.91
2022-08-09T15:42:53.719Z,41.71
2022-08-09T15:45:29.288Z,41.55
2022-08-09T15:48:06.457Z,41.94
2022-08-09T15:50:44.110Z,43.33
2022-08-09T15:53:18.770Z,43.89
2022-08-09T15:56:29.154Z,44.74
2022-08-09T15:59:02.428Z,45.25
2022-08-09T16:01:35.497Z,45.06
2022-08-09T16:04:13.478Z,45.53
2022-08-09T16:06:50.615Z,45.74
2022-08-09T16:09:32.672Z,45.88
2022-08-09T16:12:17.224Z,45.85
2022-08-09T16:14:48.316Z,45.82
2022-08-09T16:17:19.752Z,45.93
2022-08-09T16:20:04.771Z,45.85
2022-08-09T16:22:48.861Z,46.28
2022-08-09T16:25:39.397Z,46.18
2022-08-09T16:28:13.604Z,46.23
2022-08-09T16:30:44.594Z,46.03
2022-08-09T16:33:16.276Z,46.14
2022-08-09T16:35:57.949Z,46.47
2022-08-09T16:38:32.538Z,46.37
2022-08-09T16:41:07.005Z,47.11
2022-08-09T16:43:40.354Z,46.90
2022-08-09T16:46:10.801Z,47.00
2022-08-09T16:48:59.251Z,46.93
2022-08-09T16:51:34.902Z,47.15
2022-08-09T16:54:34.578Z,47.28
2022-08-09T16:57:10.742Z,47.40
2022-08-09T16:59:44.066Z,47.37
2022-08-09T17:02:25.564Z,47.82
2022-08-09T17:04:56.258Z,47.85
2022-08-09T17:08:43.599Z,47.86
2022-08-09T17:10:20.891Z,48.09
2022-08-09T17:12:53.122Z,48.49
2022-08-09T17:15:30.965Z,48.32
2022-08-09T17:18:16.752Z,48.32
2022-08-09T17:20:57.347Z,48.83
2022-08-09T17:24:20.774Z,49.18
2022-08-09T17:26:31.621Z,49.58
2022-08-09T17:29:20.418Z,50.15
2022-08-09T17:31:52.018Z,48.67
2022-08-09T17:35:00.757Z,49.33
2022-08-09T17:37:19.944Z,49.63
2022-08-09T17:39:55.331Z,50.08
2022-08-09T17:42:42.129Z,50.61
2022-08-09T17:45:27.097Z,51.04
2022-08-09T17:48:02.752Z,51.09
2022-08-09T17:50:37.059Z,51.38
2022-08-09T17:53:19.426Z,51.51
2022-08-09T17:55:57.617Z,51.42
2022-08-09T17:58:30.618Z,52.09
2022-08-09T18:01:04.400Z,52.60
2022-08-09T18:03:34.277Z,52.97
2022-08-09T18:06:04.396Z,53.21
2022-08-09T18:08:44.773Z,53.32
2022-08-09T18:11:16.329Z,53.68
2022-08-09T18:13:57.263Z,53.77
2022-08-09T18:16:48.905Z,54.55
2022-08-09T18:20:54.132Z,54.59
2022-08-09T18:22:17.303Z,55.07
2022-08-09T18:24:50.732Z,54.86
2022-08-09T18:28:02.898Z,55.04
2022-08-09T18:30:40.709Z,55.00
2022-08-09T18:33:12.745Z,54.94
2022-08-09T18:35:59.104Z,55.00
2022-08-09T18:38:32.175Z,55.22
2022-08-09T18:41:03.310Z,55.34
2022-08-09T18:43:35.206Z,55.29
2022-08-09T18:46:50.301Z,55.61
2022-08-09T18:49:02.078Z,56.05
2022-08-09T18:51:38.359Z,56.05
2022-08-09T18:54:17.694Z,56.01
2022-08-09T18:56:55.070Z,56.00
2022-08-09T18:59:27.292Z,56.12
2022-08-09T19:02:09.079Z,56.19
2022-08-09T19:04:48.035Z,56.57
2022-08-09T19:07:34.915Z,56.43
2022-08-09T19:10:17.282Z,56.75
2022-08-09T19:12:56.788Z,56.88
2022-08-09T19:15:49.159Z,56.68
2022-08-09T19:18:35.227Z,56.84
2022-08-09T19:21:10.793Z,57.06
2022-08-09T19:24:37.239Z,57.06
2022-08-09T19:26:35.152Z,57.05
2022-08-09T19:29:17.941Z,57.28
2022-08-09T19:31:51.040Z,57.46
2022-08-09T19:34:26.275Z,57.82
2022-08-09T19:36:59.397Z,57.54
2022-08-09T19:40:02.404Z,57.80
2022-08-09T19:42:28.239Z,57.84
2022-08-09T19:44:58.782Z,57.48
2022-08-09T19:47:29.585Z,57.46
2022-08-09T19:50:07.862Z,57.78
2022-08-09T19:52:53.109Z,57.49
2022-08-09T19:55:25.682Z,57.63
2022-08-09T19:58:01.470Z,57.94
2022-08-09T20:00:31.946Z,58.31
2022-08-09T20:04:16.971Z,58.09
2022-08-09T20:05:55.564Z,57.67
2022-08-09T20:08:34.943Z,57.68
2022-08-09T20:11:07.424Z,57.58
2022-08-09T20:13:38.434Z,56.50
2022-08-09T20:16:37.251Z,57.14
2022-08-09T20:19:42.580Z,57.30
2022-08-09T20:21:56.503Z,57.49
2022-08-09T20:24:34.085Z,57.93
2022-08-09T20:27:08.160Z,57.78
2022-08-09T20:29:40.604Z,57.83
2022-08-09T20:32:30.727Z,57.91
2022-08-09T20:35:05.688Z,57.83
2022-08-09T20:38:22.043Z,58.44
2022-08-09T20:40:31.129Z,58.32
2022-08-09T20:43:18.166Z,58.46
2022-08-09T20:45:59.542Z,58.23
2022-08-09T20:48:32.308Z,58.63
2022-08-09T20:51:03.163Z,58.54
2022-08-09T20:53:36.888Z,58.23
2022-08-09T20:56:20.163Z,58.41
2022-08-09T20:58:54.676Z,58.43
2022-08-09T21:01:34.462Z,58.09
2022-08-09T21:05:55.151Z,58.17
2022-08-09T21:07:12.149Z,57.71
2022-08-09T21:09:55.676Z,58.11
2022-08-09T21:15:23.689Z,58.39
2022-08-09T21:18:11.664Z,58.64
2022-08-09T21:20:54.865Z,58.98
2022-08-09T21:23:36.055Z,59.48
2022-08-09T21:26:17.352Z,59.47
2022-08-09T21:28:55.994Z,59.77
2022-08-09T21:31:48.842Z,59.51
2022-08-09T21:34:29.362Z,59.68
2022-08-09T21:37:02.731Z,59.91
2022-08-09T21:39:42.367Z,59.74
2022-08-09T21:42:16.572Z,59.63
2022-08-09T21:44:47.404Z,59.38
2022-08-09T21:47:22.126Z,59.71
2022-08-09T21:49:56.306Z,59.75
2022-08-09T21:52:32.676Z,60.62
2022-08-09T21:55:04.893Z,60.42
2022-08-09T21:57:38.551Z,60.66
2022-08-09T22:00:32.476Z,60.95
2022-08-09T22:03:06.396Z,60.94
2022-08-09T22:05:42.293Z,61.41
2022-08-09T22:08:14.609Z,61.30
2022-08-09T22:11:48.917Z,61.00
2022-08-09T22:13:37.484Z,60.96
2022-08-09T22:16:09.688Z,61.34
2022-08-09T22:18:44.136Z,61.23
2022-08-09T22:21:44.757Z,61.13
2022-08-09T22:24:24.193Z,60.82
2022-08-09T22:26:55.045Z,60.55
2022-08-09T22:29:28.761Z,60.51
2022-08-09T22:32:12.677Z,60.84
2022-08-09T22:35:06.414Z,60.70
2022-08-09T22:38:06.956Z,60.27
2022-08-09T22:40:38.694Z,60.53
2022-08-09T22:44:00.487Z,60.67
2022-08-09T22:48:11.473Z,60.74
2022-08-09T22:49:05.537Z,59.89
2022-08-09T22:51:49.250Z,59.92
2022-08-09T22:54:23.661Z,60.22
2022-08-09T22:56:58.621Z,60.13
2022-08-09T22:59:56.093Z,60.30
2022-08-09T23:02:20.446Z,59.77
2022-08-09T23:04:53.607Z,60.32
2022-08-09T23:08:27.382Z,60.36
2022-08-09T23:10:34.306Z,59.80
2022-08-09T23:13:04.023Z,60.43
2022-08-09T23:15:34.752Z,60.81
2022-08-09T23:18:04.466Z,60.87
2022-08-09T23:20:39.762Z,61.25
2022-08-09T23:23:09.149Z,61.03
2022-08-09T23:25:39.415Z,60.93
2022-08-09T23:28:14.630Z,61.07
2022-08-09T23:30:51.383Z,60.65
2022-08-09T23:33:22.329Z,60.18
2022-08-09T23:36:04.623Z,60.32
2022-08-09T23:38:49.211Z,59.96
2022-08-09T23:41:27.464Z,59.76
2022-08-09T23:44:00.201Z,59.44
2022-08-09T23:46:30.396Z,59.37
2022-08-09T23:49:01.054Z,59.62
2022-08-09T23:51:32.214Z,59.54
2022-08-09T23:54:03.660Z,59.50
2022-08-09T23:56:52.118Z,59.57
2022-08-09T23:59:25.886Z,58.51
